createdAt,value
2022-10-12T00:00:00.402Z,8.5
2022-10-12T00:05:00.469Z,8.4
2022-10-12T00:10:00.416Z,8.5
2022-10-12T00:15:00.194Z,8.4
2022-10-12T00:20:00.123Z,8.4
2022-10-12T00:25:00.415Z,8.4
2022-10-12T00:30:00.219Z,8.4
2022-10-12T00:35:00.414Z,8.4
2022-10-12T00:40:00.416Z,8.4
2022-10-12T00:45:00.457Z,8.4
2022-10-12T00:50:00.534Z,8.3
2022-10-12T00:55:00.199Z,8.3
2022-10-12T01:00:00.436Z,8.2
2022-10-12T01:05:00.386Z,8.3
2022-10-12T01:10:00.198Z,8.3
2022-10-12T01:15:00.214Z,8.2
2022-10-12T01:20:00.207Z,8.2
2022-10-12T01:25:00.479Z,8.2
2022-10-12T01:30:00.496Z,8.2
2022-10-12T01:35:00.406Z,8.2
2022-10-12T01:40:00.456Z,8.2
2022-10-12T01:45:00.352Z,8.2
2022-10-12T01:50:00.399Z,8.3
2022-10-12T01:55:00.500Z,8.3
2022-10-12T02:00:00.173Z,8.4
2022-10-12T02:05:00.131Z,8.4
2022-10-12T02:10:00.435Z,8.5
2022-10-12T02:15:00.419Z,8.6
2022-10-12T02:20:00.462Z,8.7
2022-10-12T02:25:00.370Z,8.7
2022-10-12T02:30:00.410Z,8.8
2022-10-12T02:35:00.392Z,8.8
2022-10-12T02:40:00.386Z,8.8
2022-10-12T02:45:00.218Z,8.9
2022-10-12T02:50:00.399Z,8.9
2022-10-12T02:55:00.427Z,9.1
2022-10-12T03:00:00.444Z,9.1
2022-10-12T03:05:00.393Z,9.2
2022-10-12T03:10:00.399Z,9.2
2022-10-12T03:15:00.420Z,9.2
2022-10-12T03:20:00.415Z,9.2
2022-10-12T03:25:00.413Z,9.2
2022-10-12T03:30:00.361Z,9.3
2022-10-12T03:35:00.475Z,9.4
2022-10-12T03:40:00.469Z,9.4
2022-10-12T03:45:00.247Z,9.4
2022-10-12T03:50:00.489Z,9.5
2022-10-12T03:55:00.384Z,9.5
2022-10-12T04:00:00.203Z,9.5
2022-10-12T04:05:00.411Z,9.5
2022-10-12T04:10:00.409Z,9.5
2022-10-12T04:15:00.275Z,9.6
2022-10-12T04:20:00.398Z,9.7
2022-10-12T04:25:00.467Z,9.8
2022-10-12T04:30:00.452Z,9.8
2022-10-12T04:35:00.212Z,9.8
2022-10-12T04:40:00.428Z,9.8
2022-10-12T04:45:00.226Z,9.8
2022-10-12T04:50:00.475Z,9.8
2022-10-12T04:55:00.174Z,9.8
2022-10-12T05:00:00.493Z,9.8
2022-10-12T05:05:00.479Z,9.8
2022-10-12T05:10:00.423Z,9.8
2022-10-12T05:15:00.485Z,9.8
2022-10-12T05:20:00.499Z,9.8
2022-10-12T05:25:00.410Z,9.8
2022-10-12T05:30:00.353Z,9.7
2022-10-12T05:35:00.415Z,9.7
2022-10-12T05:40:00.395Z,9.6
2022-10-12T05:45:00.412Z,9.7
2022-10-12T05:50:00.449Z,9.7
2022-10-12T05:55:00.402Z,9.8
2022-10-12T06:00:00.437Z,9.8
2022-10-12T06:05:00.418Z,9.8
2022-10-12T06:10:00.473Z,9.9
2022-10-12T06:15:00.384Z,10
2022-10-12T06:20:00.449Z,10
2022-10-12T06:25:00.428Z,10
2022-10-12T06:30:00.455Z,10
2022-10-12T06:35:00.414Z,10
2022-10-12T06:40:00.418Z,10.1
2022-10-12T06:45:00.397Z,10.1
2022-10-12T06:50:00.384Z,10.1
2022-10-12T06:55:00.430Z,10.1
2022-10-12T07:00:00.433Z,10.2
2022-10-12T07:05:00.392Z,10.3
2022-10-12T07:10:00.438Z,10.3
2022-10-12T07:15:00.437Z,10.2
2022-10-12T07:20:00.424Z,10.3
2022-10-12T07:25:00.469Z,10.4
2022-10-12T07:30:00.449Z,10.4
2022-10-12T07:35:00.445Z,10.5
2022-10-12T07:40:00.468Z,10.4
2022-10-12T07:45:00.475Z,10.6
2022-10-12T07:50:00.517Z,10.5
2022-10-12T07:55:00.491Z,10.5
2022-10-12T08:00:00.419Z,10.3
2022-10-12T08:05:00.428Z,10.4
2022-10-12T08:10:00.195Z,10.3
2022-10-12T08:15:00.383Z,10.4
2022-10-12T08:20:00.441Z,10.4
2022-10-12T08:25:00.399Z,10.4
2022-10-12T08:30:00.417Z,10.4
2022-10-12T08:35:00.403Z,10.4
2022-10-12T08:40:03.236Z,10.4
2022-10-12T08:45:00.435Z,10.6
2022-10-12T08:50:00.399Z,10.4
2022-10-12T08:55:00.379Z,10.4
2022-10-12T09:00:00.416Z,10.4
2022-10-12T09:05:00.410Z,10.4
2022-10-12T09:10:00.408Z,10.5
2022-10-12T09:15:00.453Z,10.6
2022-10-12T09:20:00.411Z,10.3
2022-10-12T09:25:00.407Z,10.5
2022-10-12T09:30:00.400Z,10.5
2022-10-12T09:35:00.424Z,10.6
2022-10-12T09:40:00.426Z,10.4
2022-10-12T09:45:00.469Z,10.5
2022-10-12T09:50:00.504Z,10.5
2022-10-12T09:55:01.374Z,10.3
2022-10-12T10:00:00.470Z,10.3
2022-10-12T10:05:00.398Z,10.5
2022-10-12T10:10:00.577Z,10.3
2022-10-12T10:15:00.453Z,10.4
2022-10-12T10:20:00.463Z,10.4
2022-10-12T10:25:01.019Z,10.4
2022-10-12T10:30:10.329Z,10.4
2022-10-12T10:35:00.413Z,10.3
2022-10-12T10:40:00.467Z,10.2
2022-10-12T10:45:00.470Z,10.2
2022-10-12T10:50:00.482Z,10.2
2022-10-12T10:55:00.392Z,10.1
2022-10-12T11:00:19.685Z,10.3
2022-10-12T11:05:00.509Z,10.2
2022-10-12T11:10:00.420Z,10.2
2022-10-12T11:15:00.466Z,10.3
2022-10-12T11:20:00.418Z,10.3
2022-10-12T11:25:00.439Z,10.4
2022-10-12T11:35:00.393Z,10.2
2022-10-12T11:40:00.600Z,10.2
2022-10-12T11:45:00.457Z,10.2
2022-10-12T11:50:00.483Z,10.3
2022-10-12T11:55:00.432Z,10.4
2022-10-12T12:00:00.412Z,10.4
2022-10-12T12:05:00.530Z,10.4
2022-10-12T12:10:00.417Z,10.4
2022-10-12T12:15:00.430Z,10.2
2022-10-12T12:20:00.436Z,10.2
2022-10-12T12:25:00.397Z,10.3
2022-10-12T12:30:00.404Z,10.2
2022-10-12T12:35:00.832Z,10.2
2022-10-12T12:40:00.412Z,10.2
2022-10-12T12:45:00.386Z,10.2
2022-10-12T12:50:00.503Z,10.2
2022-10-12T12:55:00.383Z,10.1
2022-10-12T13:00:00.396Z,10.2
2022-10-12T13:05:00.441Z,10.2
2022-10-12T13:10:00.573Z,10.2
2022-10-12T13:15:00.444Z,10
2022-10-12T13:20:00.622Z,10
2022-10-12T13:25:00.445Z,10
2022-10-12T13:30:00.581Z,10
2022-10-12T13:35:00.429Z,10.1
2022-10-12T13:40:00.478Z,9.9
2022-10-12T13:45:00.435Z,10
2022-10-12T13:50:00.509Z,10
2022-10-12T13:55:00.490Z,10
2022-10-12T14:00:00.511Z,10
2022-10-12T14:05:00.438Z,9.9
2022-10-12T14:10:00.453Z,9.8
2022-10-12T14:15:00.398Z,9.9
2022-10-12T14:20:00.465Z,9.9
2022-10-12T14:25:00.459Z,9.8
2022-10-12T14:30:00.434Z,9.9
2022-10-12T14:35:00.450Z,10
2022-10-12T14:40:00.407Z,10
2022-10-12T14:45:00.453Z,10
2022-10-12T14:50:00.458Z,10
2022-10-12T14:55:00.461Z,9.9
2022-10-12T15:00:00.420Z,9.9
2022-10-12T15:05:00.461Z,9.9
2022-10-12T15:10:00.400Z,9.8
2022-10-12T15:15:00.436Z,9.8
2022-10-12T15:20:00.449Z,9.9
2022-10-12T15:25:00.368Z,9.9
2022-10-12T15:30:00.399Z,9.9
2022-10-12T15:35:00.471Z,9.9
2022-10-12T15:40:00.429Z,9.9
2022-10-12T15:45:00.454Z,9.8
2022-10-12T15:50:00.427Z,9.9
2022-10-12T15:55:00.414Z,9.9
2022-10-12T16:00:00.434Z,9.9
2022-10-12T16:05:00.506Z,9.8
2022-10-12T16:10:00.396Z,9.9
2022-10-12T16:15:00.451Z,9.9
2022-10-12T16:20:00.463Z,9.8
2022-10-12T16:25:00.436Z,9.8
2022-10-12T16:30:00.469Z,9.8
2022-10-12T16:35:00.456Z,9.8
2022-10-12T16:40:00.486Z,9.8
2022-10-12T16:45:00.435Z,10
2022-10-12T16:50:00.408Z,9.9
2022-10-12T16:55:00.476Z,10
2022-10-12T17:00:00.400Z,10
2022-10-12T17:05:00.467Z,10
2022-10-12T17:10:00.385Z,10
2022-10-12T17:15:00.448Z,10
2022-10-12T17:25:00.403Z,9.9
2022-10-12T17:30:00.506Z,9.9
2022-10-12T17:35:00.444Z,9.8
2022-10-12T17:40:00.488Z,9.8
2022-10-12T17:45:00.422Z,9.8
2022-10-12T17:50:00.570Z,9.8
2022-10-12T17:55:00.401Z,9.9
2022-10-12T18:00:00.457Z,9.9
2022-10-12T18:05:00.438Z,9.8
2022-10-12T18:10:00.522Z,9.8
2022-10-12T18:15:00.412Z,9.9
2022-10-12T18:20:00.453Z,9.8
2022-10-12T18:25:00.425Z,9.8
2022-10-12T18:30:00.432Z,9.8
2022-10-12T18:35:00.374Z,9.8
2022-10-12T18:40:00.484Z,9.8
2022-10-12T18:45:00.418Z,9.8
2022-10-12T18:50:00.423Z,9.8
2022-10-12T18:55:00.441Z,9.8
2022-10-12T19:00:00.429Z,9.9
2022-10-12T19:05:00.477Z,9.9
2022-10-12T19:10:00.512Z,9.8
2022-10-12T19:15:00.427Z,9.8
2022-10-12T19:20:00.428Z,9.8
2022-10-12T19:25:00.476Z,9.8
2022-10-12T19:30:00.409Z,9.9
2022-10-12T19:35:00.391Z,9.9
2022-10-12T19:40:03.994Z,9.8
2022-10-12T19:45:00.463Z,9.8
2022-10-12T19:50:00.421Z,9.8
2022-10-12T19:55:00.414Z,9.8
2022-10-12T20:00:00.415Z,9.8
2022-10-12T20:05:00.416Z,9.8
2022-10-12T20:10:00.462Z,9.8
2022-10-12T20:15:00.332Z,9.8
2022-10-12T20:20:00.321Z,9.7
2022-10-12T20:25:00.431Z,9.7
2022-10-12T20:30:00.415Z,9.7
2022-10-12T20:35:00.628Z,9.6
2022-10-12T20:40:00.399Z,9.6
2022-10-12T20:45:00.493Z,9.6
2022-10-12T20:50:00.499Z,9.7
2022-10-12T20:55:00.496Z,9.7
2022-10-12T21:00:00.668Z,9.7
2022-10-12T21:05:00.506Z,9.7
2022-10-12T21:10:00.464Z,9.8
2022-10-12T21:15:00.506Z,9.8
2022-10-12T21:20:00.513Z,9.7
2022-10-12T21:25:00.411Z,9.7
2022-10-12T21:30:00.450Z,9.6
2022-10-12T21:35:00.440Z,9.7
2022-10-12T21:40:00.496Z,9.7
2022-10-12T21:45:00.417Z,9.6
2022-10-12T21:50:00.392Z,9.5
2022-10-12T21:55:00.486Z,9.5
2022-10-12T22:00:00.528Z,9.7
2022-10-12T22:05:00.380Z,9.7
2022-10-12T22:10:00.474Z,9.7
2022-10-12T22:15:00.616Z,9.7
2022-10-12T22:20:00.401Z,9.6
2022-10-12T22:25:00.445Z,9.6
2022-10-12T22:30:00.456Z,9.5
2022-10-12T22:35:00.422Z,9.5
2022-10-12T22:40:00.561Z,9.5
2022-10-12T22:45:00.461Z,9.5
2022-10-12T22:50:00.386Z,9.5
2022-10-12T22:55:00.419Z,9.4
2022-10-12T23:00:00.447Z,9.4
2022-10-12T23:05:00.460Z,9.3
2022-10-12T23:10:00.396Z,9.3
2022-10-12T23:15:00.452Z,9.3
2022-10-12T23:20:00.446Z,9.4
2022-10-12T23:25:00.454Z,9.5
2022-10-12T23:30:00.456Z,9.5
2022-10-12T23:35:00.445Z,9.5
2022-10-12T23:40:00.414Z,9.5
2022-10-12T23:45:00.429Z,9.5
2022-10-12T23:50:00.378Z,9.6
2022-10-12T23:55:00.444Z,9.6
